sensor_id;sensor_type;location;lat;lon;timestamp;pressure;altitude;pressure_sealevel;temperature;humidity
36386;BME280;24125;47.482;8.770;2023-05-08T00:02:02;96562.34;;;18.04;76.48
36386;BME280;24125;47.482;8.770;2023-05-08T00:04:35;96558.88;;;18.03;76.81
36386;BME280;24125;47.482;8.770;2023-05-08T00:07:08;96561.56;;;18.03;76.63
36386;BME280;24125;47.482;8.770;2023-05-08T00:09:41;96554.63;;;18.02;76.75
36386;BME280;24125;47.482;8.770;2023-05-08T00:12:14;96550.00;;;18.03;76.88
36386;BME280;24125;47.482;8.770;2023-05-08T00:14:48;96556.16;;;18.03;76.63
36386;BME280;24125;47.482;8.770;2023-05-08T00:17:21;96559.66;;;18.04;76.91
36386;BME280;24125;47.482;8.770;2023-05-08T00:19:54;96558.88;;;18.03;77.01
36386;BME280;24125;47.482;8.770;2023-05-08T00:22:27;96559.28;;;18.05;77.08
36386;BME280;24125;47.482;8.770;2023-05-08T00:25:00;96555.03;;;18.04;76.95
36386;BME280;24125;47.482;8.770;2023-05-08T00:27:33;96559.66;;;18.04;77.00
36386;BME280;24125;47.482;8.770;2023-05-08T00:30:08;96561.22;;;18.05;76.70
36386;BME280;24125;47.482;8.770;2023-05-08T00:32:42;96553.13;;;18.05;76.69
36386;BME280;24125;47.482;8.770;2023-05-08T00:35:15;96561.22;;;18.05;76.92
36386;BME280;24125;47.482;8.770;2023-05-08T00:37:47;96563.91;;;18.05;77.02
36386;BME280;24125;47.482;8.770;2023-05-08T00:40:21;96565.47;;;18.06;76.94
36386;BME280;24125;47.482;8.770;2023-05-08T00:42:53;96566.63;;;18.05;76.96
36386;BME280;24125;47.482;8.770;2023-05-08T00:45:29;96556.94;;;18.04;77.10
36386;BME280;24125;47.482;8.770;2023-05-08T00:48:04;96560.44;;;18.04;77.05
36386;BME280;24125;47.482;8.770;2023-05-08T00:50:37;96560.44;;;18.04;76.88
36386;BME280;24125;47.482;8.770;2023-05-08T00:53:09;96561.22;;;18.05;76.92
36386;BME280;24125;47.482;8.770;2023-05-08T00:55:43;96549.22;;;18.02;76.87
36386;BME280;24125;47.482;8.770;2023-05-08T00:58:16;96563.84;;;18.01;76.91
36386;BME280;24125;47.482;8.770;2023-05-08T01:00:51;96557.66;;;18.01;76.93
36386;BME280;24125;47.482;8.770;2023-05-08T01:03:25;96557.25;;;17.99;76.84
36386;BME280;24125;47.482;8.770;2023-05-08T01:05:59;96552.22;;;17.97;76.94
36386;BME280;24125;47.482;8.770;2023-05-08T01:08:33;96562.25;;;17.97;76.76
36386;BME280;24125;47.482;8.770;2023-05-08T01:11:08;96562.97;;;17.94;76.85
36386;BME280;24125;47.482;8.770;2023-05-08T01:13:49;96550.59;;;17.93;76.70
36386;BME280;24125;47.482;8.770;2023-05-08T01:16:27;96557.88;;;17.89;76.87
36386;BME280;24125;47.482;8.770;2023-05-08T01:19:02;96558.25;;;17.87;76.84
36386;BME280;24125;47.482;8.770;2023-05-08T01:21:40;96551.63;;;17.85;76.54
36386;BME280;24125;47.482;8.770;2023-05-08T01:27:23;96556.22;;;17.81;76.77
36386;BME280;24125;47.482;8.770;2023-05-08T01:33:06;96552.69;;;17.77;77.05
36386;BME280;24125;47.482;8.770;2023-05-08T01:35:41;96554.94;;;17.75;77.35
36386;BME280;24125;47.482;8.770;2023-05-08T01:38:16;96550.31;;;17.75;77.40
36386;BME280;24125;47.482;8.770;2023-05-08T01:40:52;96549.53;;;17.75;77.36
36386;BME280;24125;47.482;8.770;2023-05-08T01:43:27;96557.66;;;17.75;77.38
36386;BME280;24125;47.482;8.770;2023-05-08T01:46:04;96546.84;;;17.75;77.22
36386;BME280;24125;47.482;8.770;2023-05-08T01:48:41;96550.69;;;17.73;77.34
36386;BME280;24125;47.482;8.770;2023-05-08T01:51:16;96556.09;;;17.73;77.13
36386;BME280;24125;47.482;8.770;2023-05-08T01:53:51;96557.25;;;17.73;77.29
36386;BME280;24125;47.482;8.770;2023-05-08T01:56:27;96561.09;;;17.71;77.13
36386;BME280;24125;47.482;8.770;2023-05-08T01:59:01;96561.09;;;17.71;77.38
36386;BME280;24125;47.482;8.770;2023-05-08T02:01:34;96558.75;;;17.70;77.10
36386;BME280;24125;47.482;8.770;2023-05-08T02:04:08;96563.00;;;17.71;77.34
36386;BME280;24125;47.482;8.770;2023-05-08T02:06:42;96557.97;;;17.69;77.34
36386;BME280;24125;47.482;8.770;2023-05-08T02:09:15;96564.16;;;17.70;77.22
36386;BME280;24125;47.482;8.770;2023-05-08T02:11:48;96566.06;;;17.69;77.51
36386;BME280;24125;47.482;8.770;2023-05-08T02:14:21;96565.28;;;17.69;77.40
36386;BME280;24125;47.482;8.770;2023-05-08T02:16:54;96564.94;;;17.70;77.32
36386;BME280;24125;47.482;8.770;2023-05-08T02:19:29;96569.53;;;17.70;77.54
36386;BME280;24125;47.482;8.770;2023-05-08T02:22:02;96572.25;;;17.70;77.37
36386;BME280;24125;47.482;8.770;2023-05-08T02:24:35;96568.41;;;17.71;77.46
36386;BME280;24125;47.482;8.770;2023-05-08T02:27:09;96575.00;;;17.73;77.61
36386;BME280;24125;47.482;8.770;2023-05-08T02:29:42;96568.44;;;17.75;77.60
36386;BME280;24125;47.482;8.770;2023-05-08T02:32:16;96571.94;;;17.75;77.80
36386;BME280;24125;47.482;8.770;2023-05-08T02:34:51;96575.41;;;17.76;77.76
36386;BME280;24125;47.482;8.770;2023-05-08T02:37:33;96572.34;;;17.77;77.72
36386;BME280;24125;47.482;8.770;2023-05-08T02:40:06;96574.69;;;17.79;77.93
36386;BME280;24125;47.482;8.770;2023-05-08T02:42:41;96568.53;;;17.78;78.02
36386;BME280;24125;47.482;8.770;2023-05-08T02:45:14;96570.50;;;17.81;77.95
36386;BME280;24125;47.482;8.770;2023-05-08T02:47:50;96566.25;;;17.80;77.91
36386;BME280;24125;47.482;8.770;2023-05-08T02:50:28;96569.34;;;17.82;77.81
36386;BME280;24125;47.482;8.770;2023-05-08T02:53:06;96569.34;;;17.82;77.81
36386;BME280;24125;47.482;8.770;2023-05-08T02:55:43;96577.44;;;17.82;77.93
36386;BME280;24125;47.482;8.770;2023-05-08T02:58:19;96570.13;;;17.83;77.91
36386;BME280;24125;47.482;8.770;2023-05-08T03:00:55;96567.41;;;17.83;77.87
36386;BME280;24125;47.482;8.770;2023-05-08T03:03:29;96570.91;;;17.83;77.87
36386;BME280;24125;47.482;8.770;2023-05-08T03:06:07;96568.94;;;17.80;77.83
36386;BME280;24125;47.482;8.770;2023-05-08T03:08:41;96565.47;;;17.80;77.67
36386;BME280;24125;47.482;8.770;2023-05-08T03:11:15;96566.25;;;17.80;77.87
36386;BME280;24125;47.482;8.770;2023-05-08T03:13:49;96560.06;;;17.80;77.84
36386;BME280;24125;47.482;8.770;2023-05-08T03:16:23;96564.69;;;17.79;77.67
36386;BME280;24125;47.482;8.770;2023-05-08T03:18:57;96567.75;;;17.78;77.93
36386;BME280;24125;47.482;8.770;2023-05-08T03:21:32;96573.13;;;17.78;77.64
36386;BME280;24125;47.482;8.770;2023-05-08T03:24:07;96564.25;;;17.77;77.74
36386;BME280;24125;47.482;8.770;2023-05-08T03:26:41;96563.06;;;17.75;77.82
36386;BME280;24125;47.482;8.770;2023-05-08T03:29:14;96564.97;;;17.74;77.64
36386;BME280;24125;47.482;8.770;2023-05-08T03:31:48;96564.56;;;17.72;77.72
36386;BME280;24125;47.482;8.770;2023-05-08T03:34:22;96566.09;;;17.73;77.91
36386;BME280;24125;47.482;8.770;2023-05-08T03:36:57;96572.69;;;17.72;77.84
36386;BME280;24125;47.482;8.770;2023-05-08T03:39:30;96567.28;;;17.72;77.78
36386;BME280;24125;47.482;8.770;2023-05-08T03:42:03;96570.34;;;17.70;77.50
36386;BME280;24125;47.482;8.770;2023-05-08T03:44:36;96568.75;;;17.69;77.76
36386;BME280;24125;47.482;8.770;2023-05-08T03:47:09;96573.38;;;17.69;78.04
36386;BME280;24125;47.482;8.770;2023-05-08T03:49:42;96566.44;;;17.68;78.06
36386;BME280;24125;47.482;8.770;2023-05-08T03:52:18;96569.91;;;17.68;77.87
36386;BME280;24125;47.482;8.770;2023-05-08T03:54:51;96573.38;;;17.69;77.91
36386;BME280;24125;47.482;8.770;2023-05-08T03:57:24;96572.59;;;17.68;77.92
36386;BME280;24125;47.482;8.770;2023-05-08T04:00:00;96572.59;;;17.68;78.15
36386;BME280;24125;47.482;8.770;2023-05-08T04:02:35;96574.94;;;17.70;77.93
36386;BME280;24125;47.482;8.770;2023-05-08T04:05:14;96572.25;;;17.70;78.09
36386;BME280;24125;47.482;8.770;2023-05-08T04:07:51;96576.88;;;17.69;77.90
36386;BME280;24125;47.482;8.770;2023-05-08T04:10:27;96578.44;;;17.70;78.02
36386;BME280;24125;47.482;8.770;2023-05-08T04:13:02;96584.97;;;17.69;78.09
36386;BME280;24125;47.482;8.770;2023-05-08T04:15:37;96585.75;;;17.70;78.09
36386;BME280;24125;47.482;8.770;2023-05-08T04:18:11;96584.97;;;17.69;78.12
36386;BME280;24125;47.482;8.770;2023-05-08T04:20:46;96583.84;;;17.70;78.16
36386;BME280;24125;47.482;8.770;2023-05-08T04:23:21;96587.31;;;17.71;78.24
36386;BME280;24125;47.482;8.770;2023-05-08T04:25:54;96590.78;;;17.71;78.22
36386;BME280;24125;47.482;8.770;2023-05-08T04:28:28;96593.09;;;17.73;78.12
36386;BME280;24125;47.482;8.770;2023-05-08T04:31:01;96591.97;;;17.74;78.21
36386;BME280;24125;47.482;8.770;2023-05-08T04:33:35;96583.50;;;17.76;78.37
36386;BME280;24125;47.482;8.770;2023-05-08T04:36:09;96599.72;;;17.76;78.01
36386;BME280;24125;47.482;8.770;2023-05-08T04:38:44;96593.53;;;17.75;78.07
36386;BME280;24125;47.482;8.770;2023-05-08T04:41:17;96590.47;;;17.77;78.17
36386;BME280;24125;47.482;8.770;2023-05-08T04:43:50;96594.31;;;17.76;78.07
36386;BME280;24125;47.482;8.770;2023-05-08T04:46:22;96590.47;;;17.77;78.07
36386;BME280;24125;47.482;8.770;2023-05-08T04:48:56;96599.78;;;17.79;78.16
36386;BME280;24125;47.482;8.770;2023-05-08T04:51:28;96594.75;;;17.78;78.10
36386;BME280;24125;47.482;8.770;2023-05-08T04:54:03;96599.38;;;17.77;78.12
36386;BME280;24125;47.482;8.770;2023-05-08T04:56:36;96585.84;;;17.77;77.98
36386;BME280;24125;47.482;8.770;2023-05-08T04:59:09;96587.44;;;17.78;78.18
36386;BME280;24125;47.482;8.770;2023-05-08T05:01:44;96599.38;;;17.77;78.13
36386;BME280;24125;47.482;8.770;2023-05-08T05:04:17;96595.88;;;17.77;78.10
36386;BME280;24125;47.482;8.770;2023-05-08T05:06:50;96598.59;;;17.77;77.86
36386;BME280;24125;47.482;8.770;2023-05-08T05:09:24;96600.16;;;17.78;78.15
36386;BME280;24125;47.482;8.770;2023-05-08T05:11:56;96602.50;;;17.79;78.25
36386;BME280;24125;47.482;8.770;2023-05-08T05:14:29;96596.72;;;17.81;78.20
36386;BME280;24125;47.482;8.770;2023-05-08T05:17:02;96604.44;;;17.82;78.52
36386;BME280;24125;47.482;8.770;2023-05-08T05:19:35;96602.97;;;17.85;78.43
36386;BME280;24125;47.482;8.770;2023-05-08T05:22:07;96604.53;;;17.86;78.38
36386;BME280;24125;47.482;8.770;2023-05-08T05:24:42;96608.78;;;17.87;78.38
36386;BME280;24125;47.482;8.770;2023-05-08T05:27:15;96608.81;;;17.90;78.41
36386;BME280;24125;47.482;8.770;2023-05-08T05:29:51;96614.66;;;17.92;78.44
36386;BME280;24125;47.482;8.770;2023-05-08T05:32:24;96611.66;;;17.97;78.81
36386;BME280;24125;47.482;8.770;2023-05-08T05:34:56;96620.94;;;18.00;78.67
36386;BME280;24125;47.482;8.770;2023-05-08T05:37:29;96618.31;;;18.03;78.52
36386;BME280;24125;47.482;8.770;2023-05-08T05:40:05;96613.72;;;18.07;78.67
36386;BME280;24125;47.482;8.770;2023-05-08T05:42:38;96611.44;;;18.09;78.50
36386;BME280;24125;47.482;8.770;2023-05-08T05:45:10;96616.91;;;18.13;78.44
36386;BME280;24125;47.482;8.770;2023-05-08T05:47:44;96622.34;;;18.17;78.44
36386;BME280;24125;47.482;8.770;2023-05-08T05:50:20;96618.59;;;18.21;78.44
36386;BME280;24125;47.482;8.770;2023-05-08T05:52:53;96617.88;;;18.24;78.36
36386;BME280;24125;47.482;8.770;2023-05-08T05:55:27;96620.97;;;18.26;78.64
36386;BME280;24125;47.482;8.770;2023-05-08T05:58:00;96623.38;;;18.31;78.70
36386;BME280;24125;47.482;8.770;2023-05-08T06:00:33;96622.63;;;18.34;78.66
36386;BME280;24125;47.482;8.770;2023-05-08T06:03:06;96625.81;;;18.40;78.71
36386;BME280;24125;47.482;8.770;2023-05-08T06:05:39;96617.72;;;18.43;78.59
36386;BME280;24125;47.482;8.770;2023-05-08T06:08:12;96622.06;;;18.48;78.61
36386;BME280;24125;47.482;8.770;2023-05-08T06:10:48;96615.53;;;18.53;78.69
36386;BME280;24125;47.482;8.770;2023-05-08T06:13:22;96612.13;;;18.56;78.63
36386;BME280;24125;47.482;8.770;2023-05-08T06:15:54;96621.50;;;18.62;78.79
36386;BME280;24125;47.482;8.770;2023-05-08T06:18:27;96619.28;;;18.67;78.71
36386;BME280;24125;47.482;8.770;2023-05-08T06:21:00;96621.28;;;18.74;78.69
36386;BME280;24125;47.482;8.770;2023-05-08T06:23:34;96622.09;;;18.78;78.73
36386;BME280;24125;47.482;8.770;2023-05-08T06:26:08;96619.09;;;18.83;78.45
36386;BME280;24125;47.482;8.770;2023-05-08T06:28:41;96628.44;;;18.89;78.58
36386;BME280;24125;47.482;8.770;2023-05-08T06:31:13;96625.00;;;18.92;78.31
36386;BME280;24125;47.482;8.770;2023-05-08T06:33:46;96628.16;;;18.98;78.25
36386;BME280;24125;47.482;8.770;2023-05-08T06:36:19;96627.00;;;18.99;78.17
36386;BME280;24125;47.482;8.770;2023-05-08T06:38:52;96626.66;;;19.04;78.22
36386;BME280;24125;47.482;8.770;2023-05-08T06:41:26;96623.59;;;19.05;78.02
36386;BME280;24125;47.482;8.770;2023-05-08T06:43:59;96627.91;;;19.10;78.01
36386;BME280;24125;47.482;8.770;2023-05-08T06:46:32;96628.69;;;19.10;77.85
36386;BME280;24125;47.482;8.770;2023-05-08T06:49:04;96632.56;;;19.13;77.76
36386;BME280;24125;47.482;8.770;2023-05-08T06:51:37;96632.63;;;19.16;77.90
36386;BME280;24125;47.482;8.770;2023-05-08T06:54:10;96640.38;;;19.18;77.91
36386;BME280;24125;47.482;8.770;2023-05-08T06:56:44;96638.06;;;19.20;77.83
36386;BME280;24125;47.482;8.770;2023-05-08T06:59:17;96642.75;;;19.23;77.69
36386;BME280;24125;47.482;8.770;2023-05-08T07:01:50;96646.66;;;19.26;77.60
36386;BME280;24125;47.482;8.770;2023-05-08T07:04:23;96637.38;;;19.27;77.64
36386;BME280;24125;47.482;8.770;2023-05-08T07:06:55;96640.09;;;19.30;77.79
36386;BME280;24125;47.482;8.770;2023-05-08T07:09:28;96637.03;;;19.32;77.66
36386;BME280;24125;47.482;8.770;2023-05-08T07:12:03;96640.56;;;19.36;77.84
36386;BME280;24125;47.482;8.770;2023-05-08T07:14:36;96639.03;;;19.38;77.76
36386;BME280;24125;47.482;8.770;2023-05-08T07:17:08;96645.66;;;19.41;77.86
36386;BME280;24125;47.482;8.770;2023-05-08T07:19:41;96643.00;;;19.44;77.82
36386;BME280;24125;47.482;8.770;2023-05-08T07:22:14;96649.25;;;19.48;77.85
36386;BME280;24125;47.482;8.770;2023-05-08T07:24:46;96647.34;;;19.52;77.70
36386;BME280;24125;47.482;8.770;2023-05-08T07:27:21;96637.69;;;19.55;77.59
36386;BME280;24125;47.482;8.770;2023-05-08T07:29:53;96642.38;;;19.58;77.86
36386;BME280;24125;47.482;8.770;2023-05-08T07:32:27;96650.19;;;19.63;77.66
36386;BME280;24125;47.482;8.770;2023-05-08T07:35:01;96649.41;;;19.66;77.70
36386;BME280;24125;47.482;8.770;2023-05-08T07:37:39;96652.97;;;19.70;77.59
36386;BME280;24125;47.482;8.770;2023-05-08T07:40:11;96650.25;;;19.74;77.55
36386;BME280;24125;47.482;8.770;2023-05-08T07:42:45;96654.94;;;19.77;77.56
36386;BME280;24125;47.482;8.770;2023-05-08T07:45:18;96650.31;;;19.81;77.71
36386;BME280;24125;47.482;8.770;2023-05-08T07:47:51;96646.47;;;19.82;77.38
36386;BME280;24125;47.482;8.770;2023-05-08T07:50:24;96653.50;;;19.86;77.10
36386;BME280;24125;47.482;8.770;2023-05-08T07:52:57;96653.91;;;19.88;77.06
36386;BME280;24125;47.482;8.770;2023-05-08T07:55:30;96651.56;;;19.90;77.07
36386;BME280;24125;47.482;8.770;2023-05-08T07:58:04;96657.41;;;19.92;76.98
36386;BME280;24125;47.482;8.770;2023-05-08T08:00:38;96661.69;;;19.93;77.33
36386;BME280;24125;47.482;8.770;2023-05-08T08:03:11;96657.03;;;19.94;76.82
36386;BME280;24125;47.482;8.770;2023-05-08T08:05:44;96655.09;;;19.94;77.01
36386;BME280;24125;47.482;8.770;2023-05-08T08:08:17;96649.31;;;19.96;76.88
36386;BME280;24125;47.482;8.770;2023-05-08T08:10:50;96651.66;;;19.98;77.08
36386;BME280;24125;47.482;8.770;2023-05-08T08:13:24;96651.25;;;19.99;77.08
36386;BME280;24125;47.482;8.770;2023-05-08T08:15:57;96655.94;;;20.02;77.09
36386;BME280;24125;47.482;8.770;2023-05-08T08:18:32;96653.66;;;20.04;77.12
36386;BME280;24125;47.482;8.770;2023-05-08T08:21:06;96655.63;;;20.11;77.43
36386;BME280;24125;47.482;8.770;2023-05-08T08:23:39;96651.03;;;20.15;77.73
36386;BME280;24125;47.482;8.770;2023-05-08T08:26:11;96649.94;;;20.23;78.21
36386;BME280;24125;47.482;8.770;2023-05-08T08:28:45;96649.19;;;20.33;78.69
36386;BME280;24125;47.482;8.770;2023-05-08T08:31:18;96654.00;;;20.47;79.11
36386;BME280;24125;47.482;8.770;2023-05-08T08:33:51;96652.13;;;20.61;79.31
36386;BME280;24125;47.482;8.770;2023-05-08T08:36:24;96648.38;;;20.80;79.73
36386;BME280;24125;47.482;8.770;2023-05-08T08:38:57;96648.47;;;20.98;79.75
36386;BME280;24125;47.482;8.770;2023-05-08T08:41:30;96643.91;;;21.16;79.32
36386;BME280;24125;47.482;8.770;2023-05-08T08:44:05;96640.88;;;21.32;79.42
36386;BME280;24125;47.482;8.770;2023-05-08T08:46:38;96642.06;;;21.49;78.94
36386;BME280;24125;47.482;8.770;2023-05-08T08:49:16;96639.78;;;21.65;79.20
36386;BME280;24125;47.482;8.770;2023-05-08T08:51:50;96647.97;;;21.82;79.29
36386;BME280;24125;47.482;8.770;2023-05-08T08:54:24;96647.59;;;21.98;79.66
36386;BME280;24125;47.482;8.770;2023-05-08T08:56:59;96641.81;;;22.14;79.65
36386;BME280;24125;47.482;8.770;2023-05-08T08:59:34;96639.47;;;22.30;79.69
36386;BME280;24125;47.482;8.770;2023-05-08T09:02:10;96641.00;;;22.45;80.19
36386;BME280;24125;47.482;8.770;2023-05-08T09:04:46;96642.91;;;22.63;79.49
36386;BME280;24125;47.482;8.770;2023-05-08T09:07:20;96639.78;;;22.78;78.72
36386;BME280;24125;47.482;8.770;2023-05-08T09:09:54;96644.00;;;22.93;78.84
36386;BME280;24125;47.482;8.770;2023-05-08T09:12:27;96642.44;;;23.07;78.94
36386;BME280;24125;47.482;8.770;2023-05-08T09:15:01;96638.09;;;23.20;78.40
36386;BME280;24125;47.482;8.770;2023-05-08T09:17:34;96641.94;;;23.33;78.23
36386;BME280;24125;47.482;8.770;2023-05-08T09:20:07;96629.38;;;23.46;78.44
36386;BME280;24125;47.482;8.770;2023-05-08T09:22:40;96633.59;;;23.61;78.32
36386;BME280;24125;47.482;8.770;2023-05-08T09:25:14;96636.25;;;23.76;77.91
36386;BME280;24125;47.482;8.770;2023-05-08T09:27:46;96638.09;;;23.93;78.51
36386;BME280;24125;47.482;8.770;2023-05-08T09:30:21;96641.47;;;24.11;79.07
36386;BME280;24125;47.482;8.770;2023-05-08T09:32:54;96643.25;;;24.32;78.91
36386;BME280;24125;47.482;8.770;2023-05-08T09:35:34;96639.94;;;24.51;78.83
36386;BME280;24125;47.482;8.770;2023-05-08T09:38:07;96638.22;;;24.68;78.41
36386;BME280;24125;47.482;8.770;2023-05-08T09:40:39;96645.09;;;24.83;78.78
36386;BME280;24125;47.482;8.770;2023-05-08T09:43:12;96646.97;;;24.93;76.69
36386;BME280;24125;47.482;8.770;2023-05-08T09:45:46;96645.69;;;25.01;77.41
36386;BME280;24125;47.482;8.770;2023-05-08T09:48:19;96640.13;;;25.08;76.76
36386;BME280;24125;47.482;8.770;2023-05-08T09:51:08;96641.63;;;25.16;77.11
36386;BME280;24125;47.482;8.770;2023-05-08T09:53:41;96643.03;;;25.28;78.73
36386;BME280;24125;47.482;8.770;2023-05-08T09:56:14;96641.72;;;25.40;78.59
36386;BME280;24125;47.482;8.770;2023-05-08T09:58:47;96644.63;;;25.56;78.17
36386;BME280;24125;47.482;8.770;2023-05-08T10:01:28;96647.53;;;25.72;79.60
36386;BME280;24125;47.482;8.770;2023-05-08T10:04:01;96650.06;;;25.86;78.04
36386;BME280;24125;47.482;8.770;2023-05-08T10:06:36;96653.41;;;25.98;76.96
36386;BME280;24125;47.482;8.770;2023-05-08T10:09:09;96641.59;;;26.04;76.73
36386;BME280;24125;47.482;8.770;2023-05-08T10:11:47;96648.56;;;26.09;74.70
36386;BME280;24125;47.482;8.770;2023-05-08T10:14:22;96639.56;;;26.08;73.83
36386;BME280;24125;47.482;8.770;2023-05-08T10:16:56;96648.59;;;26.05;72.58
36386;BME280;24125;47.482;8.770;2023-05-08T10:19:31;96645.56;;;26.00;72.14
36386;BME280;24125;47.482;8.770;2023-05-08T10:22:04;96646.88;;;25.91;72.32
36386;BME280;24125;47.482;8.770;2023-05-08T10:24:39;96636.44;;;25.83;72.41
36386;BME280;24125;47.482;8.770;2023-05-08T10:27:13;96633.81;;;25.76;74.64
36386;BME280;24125;47.482;8.770;2023-05-08T10:29:51;96631.94;;;25.69;73.71
36386;BME280;24125;47.482;8.770;2023-05-08T10:32:25;96625.00;;;25.65;75.15
36386;BME280;24125;47.482;8.770;2023-05-08T10:35:00;96625.78;;;25.65;75.93
36386;BME280;24125;47.482;8.770;2023-05-08T10:37:35;96620.25;;;25.69;74.92
36386;BME280;24125;47.482;8.770;2023-05-08T10:40:08;96616.28;;;25.73;75.29
36386;BME280;24125;47.482;8.770;2023-05-08T10:42:42;96614.56;;;25.83;75.20
36386;BME280;24125;47.482;8.770;2023-05-08T10:45:15;96607.41;;;25.92;75.32
36386;BME280;24125;47.482;8.770;2023-05-08T10:47:53;96610.38;;;26.02;75.96
36386;BME280;24125;47.482;8.770;2023-05-08T10:50:41;96610.25;;;26.09;75.51
36386;BME280;24125;47.482;8.770;2023-05-08T10:53:16;96608.94;;;26.17;75.05
36386;BME280;24125;47.482;8.770;2023-05-08T10:55:50;96604.53;;;26.23;75.62
36386;BME280;24125;47.482;8.770;2023-05-08T10:58:30;96604.44;;;26.30;74.58
36386;BME280;24125;47.482;8.770;2023-05-08T11:01:10;96595.34;;;26.37;75.36
36386;BME280;24125;47.482;8.770;2023-05-08T11:03:45;96599.44;;;26.48;75.52
36386;BME280;24125;47.482;8.770;2023-05-08T11:09:26;96595.44;;;26.73;76.14
36386;BME280;24125;47.482;8.770;2023-05-08T11:12:04;96590.91;;;26.86;76.16
36386;BME280;24125;47.482;8.770;2023-05-08T11:14:39;96590.72;;;26.96;74.67
36386;BME280;24125;47.482;8.770;2023-05-08T11:17:14;96587.31;;;27.09;75.28
36386;BME280;24125;47.482;8.770;2023-05-08T11:19:56;96584.38;;;27.19;75.08
36386;BME280;24125;47.482;8.770;2023-05-08T11:22:29;96586.91;;;27.30;75.10
36386;BME280;24125;47.482;8.770;2023-05-08T11:25:04;96591.38;;;27.40;75.70
36386;BME280;24125;47.482;8.770;2023-05-08T11:27:38;96579.41;;;27.50;76.65
36386;BME280;24125;47.482;8.770;2023-05-08T11:30:21;96571.81;;;27.58;74.34
36386;BME280;24125;47.482;8.770;2023-05-08T11:32:54;96563.50;;;27.61;73.99
36386;BME280;24125;47.482;8.770;2023-05-08T11:35:42;96576.34;;;27.64;73.93
36386;BME280;24125;47.482;8.770;2023-05-08T11:38:15;96570.09;;;27.64;72.60
36386;BME280;24125;47.482;8.770;2023-05-08T11:40:58;96579.09;;;27.64;72.08
36386;BME280;24125;47.482;8.770;2023-05-08T11:46:22;96568.63;;;27.59;71.30
36386;BME280;24125;47.482;8.770;2023-05-08T11:49:09;96567.88;;;27.59;72.61
36386;BME280;24125;47.482;8.770;2023-05-08T11:51:47;96575.34;;;27.58;72.73
36386;BME280;24125;47.482;8.770;2023-05-08T11:54:21;96562.03;;;27.57;72.15
36386;BME280;24125;47.482;8.770;2023-05-08T11:56:55;96562.03;;;27.57;72.16
36386;BME280;24125;47.482;8.770;2023-05-08T11:59:33;96569.06;;;27.58;71.84
36386;BME280;24125;47.482;8.770;2023-05-08T12:02:06;96558.09;;;27.58;73.26
36386;BME280;24125;47.482;8.770;2023-05-08T12:04:43;96562.38;;;27.59;73.48
36386;BME280;24125;47.482;8.770;2023-05-08T12:07:19;96557.56;;;27.63;73.33
36386;BME280;24125;47.482;8.770;2023-05-08T12:09:53;96559.38;;;27.69;73.35
36386;BME280;24125;47.482;8.770;2023-05-08T12:12:36;96565.13;;;27.75;71.92
36386;BME280;24125;47.482;8.770;2023-05-08T12:15:12;96564.63;;;27.80;72.89
36386;BME280;24125;47.482;8.770;2023-05-08T12:17:46;96564.88;;;27.86;73.76
36386;BME280;24125;47.482;8.770;2023-05-08T12:20:19;96566.34;;;27.90;73.81
36386;BME280;24125;47.482;8.770;2023-05-08T12:22:55;96567.88;;;27.91;72.43
36386;BME280;24125;47.482;8.770;2023-05-08T12:25:29;96569.09;;;27.90;71.90
36386;BME280;24125;47.482;8.770;2023-05-08T12:28:05;96569.56;;;27.85;71.39
36386;BME280;24125;47.482;8.770;2023-05-08T12:30:38;96571.72;;;27.77;70.99
36386;BME280;24125;47.482;8.770;2023-05-08T12:33:14;96566.06;;;27.68;70.49
36386;BME280;24125;47.482;8.770;2023-05-08T12:35:47;96563.59;;;27.58;71.40
36386;BME280;24125;47.482;8.770;2023-05-08T12:38:25;96560.28;;;27.47;72.11
36386;BME280;24125;47.482;8.770;2023-05-08T12:40:58;96561.69;;;27.35;71.74
36386;BME280;24125;47.482;8.770;2023-05-08T12:43:34;96559.28;;;27.21;71.17
36386;BME280;24125;47.482;8.770;2023-05-08T12:46:09;96560.69;;;27.09;70.90
36386;BME280;24125;47.482;8.770;2023-05-08T12:48:43;96563.31;;;26.96;70.15
36386;BME280;24125;47.482;8.770;2023-05-08T12:51:18;96559.63;;;26.83;70.60
36386;BME280;24125;47.482;8.770;2023-05-08T12:53:52;96559.84;;;26.73;71.37
36386;BME280;24125;47.482;8.770;2023-05-08T12:56:24;96552.19;;;26.64;71.14
36386;BME280;24125;47.482;8.770;2023-05-08T12:58:57;96557.03;;;26.56;70.83
36386;BME280;24125;47.482;8.770;2023-05-08T13:01:31;96555.97;;;26.50;70.94
36386;BME280;24125;47.482;8.770;2023-05-08T13:04:05;96560.00;;;26.46;70.80
36386;BME280;24125;47.482;8.770;2023-05-08T13:06:38;96568.25;;;26.42;71.29
36386;BME280;24125;47.482;8.770;2023-05-08T13:09:17;96566.78;;;26.38;70.14
36386;BME280;24125;47.482;8.770;2023-05-08T13:11:50;96558.63;;;26.34;70.93
36386;BME280;24125;47.482;8.770;2023-05-08T13:14:23;96558.34;;;26.28;71.42
36386;BME280;24125;47.482;8.770;2023-05-08T13:16:56;96564.69;;;26.22;71.66
36386;BME280;24125;47.482;8.770;2023-05-08T13:19:30;96560.22;;;26.08;70.56
36386;BME280;24125;47.482;8.770;2023-05-08T13:22:02;96551.56;;;25.90;68.62
36386;BME280;24125;47.482;8.770;2023-05-08T13:24:37;96550.00;;;25.66;67.71
36386;BME280;24125;47.482;8.770;2023-05-08T13:27:09;96556.25;;;25.36;67.27
36386;BME280;24125;47.482;8.770;2023-05-08T13:29:43;96553.19;;;25.03;66.87
36386;BME280;24125;47.482;8.770;2023-05-08T13:32:16;96549.28;;;24.70;67.41
36386;BME280;24125;47.482;8.770;2023-05-08T13:34:49;96551.94;;;24.40;67.29
36386;BME280;24125;47.482;8.770;2023-05-08T13:37:28;96542.88;;;24.13;67.81
36386;BME280;24125;47.482;8.770;2023-05-08T13:40:03;96545.78;;;23.88;67.90
36386;BME280;24125;47.482;8.770;2023-05-08T13:42:36;96553.38;;;23.66;67.86
36386;BME280;24125;47.482;8.770;2023-05-08T13:45:09;96561.69;;;23.41;61.16
36386;BME280;24125;47.482;8.770;2023-05-08T13:47:45;96575.06;;;23.18;62.81
36386;BME280;24125;47.482;8.770;2023-05-08T13:50:18;96587.63;;;22.94;64.71